Terminal Aerodrome Forecast
Issued by NWS Jackson, MS

Home | Current Version | Previous Version | Text Only | Print | Product List | Glossary On
Versions: 1 2 3 4 5 6 7 8 9 10 11 12 13 14
000
FTUS44 KJAN 241100
TAFMEI
TAF
KMEI 241120Z 2412/2512 19003KT P6SM FEW070
     FM241800 19009KT P6SM SCT050 BKN250
     FM250700 19010KT P6SM OVC025=

USA.gov is the U.S. government's official web portal to all federal, state and local government web resources and services.